Time;durP1;ratioP1;P1;durP2;ratioP2;P2;SDS_P1;SDS_P2;PMS_P1;PMS_P2;Temp;Humidity;BMP_temperature;BMP_pressure;BME280_temperature;BME280_humidity;BME280_pressure;Samples;Min_cycle;Max_cycle;Signal;HPM_P1;HPM_P2
2021/07/03 00:02:15;;;;;;;3.63;3.33;;;19.60;99.90;;;;;;5095309;28;20185;-68
2021/07/03 00:04:42;;;;;;;6.10;3.97;;;19.60;99.90;;;;;;5095077;28;20174;-66
2021/07/03 00:07:08;;;;;;;3.40;3.10;;;19.60;99.90;;;;;;5095202;28;20273;-68
2021/07/03 00:09:35;;;;;;;4.57;3.20;;;19.50;99.90;;;;;;5096470;28;20934;-68
2021/07/03 00:12:02;;;;;;;4.07;3.27;;;19.50;99.90;;;;;;5096794;28;20204;-68
2021/07/03 00:14:29;;;;;;;5.03;3.40;;;19.50;99.90;;;;;;5094992;28;20439;-66
2021/07/03 00:16:55;;;;;;;4.87;3.43;;;19.50;99.90;;;;;;5096651;28;20456;-68
2021/07/03 00:19:21;;;;;;;4.47;3.63;;;19.40;99.90;;;;;;5094964;28;20497;-67
2021/07/03 00:21:47;;;;;;;5.13;3.67;;;19.40;99.90;;;;;;5096497;28;20927;-68
2021/07/03 00:24:12;;;;;;;4.37;3.67;;;19.40;99.90;;;;;;5095191;28;20179;-68
2021/07/03 00:26:38;;;;;;;4.20;3.43;;;19.40;99.90;;;;;;5096596;28;20194;-66
2021/07/03 00:29:03;;;;;;;4.33;3.20;;;19.30;99.90;;;;;;5095997;28;20164;-66
2021/07/03 00:31:30;;;;;;;3.93;3.60;;;19.30;99.90;;;;;;5096436;28;20225;-66
2021/07/03 00:33:56;;;;;;;3.87;3.47;;;19.30;99.90;;;;;;5094723;28;20184;-68
2021/07/03 00:36:21;;;;;;;4.30;3.90;;;19.20;99.90;;;;;;5096170;28;20478;-66
2021/07/03 00:38:47;;;;;;;3.87;3.47;;;19.20;99.90;;;;;;5095946;28;20403;-68
2021/07/03 00:41:13;;;;;;;3.60;3.27;;;19.20;99.90;;;;;;5096058;28;20207;-68
2021/07/03 00:43:38;;;;;;;3.40;3.10;;;19.10;99.90;;;;;;5095790;28;20173;-68
2021/07/03 00:46:04;;;;;;;5.10;3.37;;;19.10;99.90;;;;;;5095847;28;20193;-67
2021/07/03 00:48:29;;;;;;;4.07;3.67;;;19.10;99.90;;;;;;5095705;28;20180;-67
2021/07/03 00:50:57;;;;;;;3.40;3.10;;;19.10;99.90;;;;;;5095707;28;20304;-66
2021/07/03 00:53:23;;;;;;;4.77;3.30;;;19.00;99.90;;;;;;5102400;28;20726;-69
2021/07/03 00:55:51;;;;;;;3.67;2.97;;;19.00;99.90;;;;;;5097468;28;20485;-67
2021/07/03 00:58:17;;;;;;;4.13;3.70;;;19.00;99.90;;;;;;5097522;28;20406;-68
2021/07/03 01:00:42;;;;;;;3.30;2.90;;;19.00;99.90;;;;;;5097379;28;21026;-68
2021/07/03 01:03:08;;;;;;;4.53;3.33;;;19.00;99.90;;;;;;5115687;28;20212;-66
2021/07/03 01:05:34;;;;;;;4.67;3.23;;;18.90;99.90;;;;;;5115778;28;20207;-66
2021/07/03 01:08:00;;;;;;;4.37;3.03;;;18.90;99.90;;;;;;5115735;28;20168;-66
2021/07/03 01:10:29;;;;;;;4.13;3.73;;;18.90;99.90;;;;;;5097287;28;20474;-68
2021/07/03 01:12:54;;;;;;;4.23;3.83;;;18.90;99.90;;;;;;5115552;28;20172;-66
2021/07/03 01:15:21;;;;;;;3.83;3.33;;;18.80;99.90;;;;;;5115468;28;20481;-68
2021/07/03 01:17:46;;;;;;;3.70;3.00;;;18.80;99.90;;;;;;5115532;28;20168;-68
2021/07/03 01:20:14;;;;;;;4.77;3.10;;;18.80;99.90;;;;;;5115283;28;20967;-67
2021/07/03 01:22:40;;;;;;;5.03;3.53;;;18.80;99.90;;;;;;5097113;28;20181;-66
2021/07/03 01:25:07;;;;;;;4.17;3.50;;;18.70;99.90;;;;;;5115271;28;20440;-66
2021/07/03 01:27:33;;;;;;;4.20;3.30;;;18.70;99.90;;;;;;5115376;28;20435;-66
2021/07/03 01:30:00;;;;;;;4.77;3.30;;;18.70;99.90;;;;;;5115240;28;20456;-67
2021/07/03 01:32:25;;;;;;;3.30;3.00;;;18.70;99.90;;;;;;5115233;28;20404;-68
2021/07/03 01:34:51;;;;;;;3.50;3.20;;;18.70;99.90;;;;;;5096175;28;20463;-66
2021/07/03 01:37:17;;;;;;;3.97;3.30;;;18.60;99.90;;;;;;5115169;28;20186;-66
2021/07/03 01:39:42;;;;;;;3.10;2.80;;;18.60;99.90;;;;;;5115052;28;20663;-67
2021/07/03 01:42:09;;;;;;;3.60;3.30;;;18.60;99.90;;;;;;5115005;28;20492;-68
2021/07/03 01:44:35;;;;;;;3.87;3.57;;;18.60;99.90;;;;;;5096762;28;20586;-66
2021/07/03 01:47:02;;;;;;;3.83;3.50;;;18.60;99.90;;;;;;5115407;28;20896;-68
2021/07/03 01:49:36;;;;;;;5.37;3.93;;;18.50;99.90;;;;;;5114935;28;20405;-65
2021/07/03 01:52:02;;;;;;;4.57;3.77;;;18.50;99.90;;;;;;5114795;28;20572;-66
2021/07/03 01:54:27;;;;;;;3.77;3.40;;;18.50;99.90;;;;;;5114738;28;20539;-67
2021/07/03 01:56:59;;;;;;;4.30;3.90;;;18.40;99.90;;;;;;5113617;28;20200;-67
2021/07/03 01:59:30;;;;;;;3.87;3.10;;;18.40;99.90;;;;;;5096529;28;20175;-66
2021/07/03 02:01:57;;;;;;;3.67;3.23;;;18.40;99.90;;;;;;5115142;28;20465;-68
2021/07/03 02:04:23;;;;;;;4.47;3.63;;;18.40;99.90;;;;;;5114596;28;20404;-66
2021/07/03 02:06:49;;;;;;;4.20;3.40;;;18.40;99.90;;;;;;5096382;28;20447;-68
2021/07/03 02:09:16;;;;;;;7.03;3.57;;;18.40;99.90;;;;;;5114642;28;20530;-68
2021/07/03 02:11:42;;;;;;;4.20;3.20;;;18.30;99.90;;;;;;5096437;28;20632;-68
2021/07/03 02:14:08;;;;;;;3.97;3.43;;;18.30;99.90;;;;;;5096204;28;20396;-68
2021/07/03 02:16:34;;;;;;;3.97;3.30;;;18.30;99.90;;;;;;5114678;28;20999;-67
2021/07/03 02:19:01;;;;;;;3.60;3.20;;;18.30;99.90;;;;;;5114463;28;20404;-67
2021/07/03 02:21:26;;;;;;;4.07;3.50;;;18.20;99.90;;;;;;5114237;28;20438;-66
2021/07/03 02:23:52;;;;;;;4.77;4.30;;;18.20;99.90;;;;;;5096118;28;20420;-66
2021/07/03 02:26:18;;;;;;;4.10;3.60;;;18.20;99.90;;;;;;5096132;28;20698;-67
2021/07/03 02:28:43;;;;;;;4.07;3.63;;;18.20;99.90;;;;;;5096047;28;20221;-68
2021/07/03 02:31:09;;;;;;;3.80;3.43;;;18.20;99.90;;;;;;5113975;28;20192;-68
2021/07/03 02:33:35;;;;;;;4.47;3.70;;;18.10;99.90;;;;;;5114369;28;20217;-67
2021/07/03 02:36:00;;;;;;;3.90;3.60;;;18.10;99.90;;;;;;5095935;28;20366;-68
2021/07/03 02:38:26;;;;;;;3.83;3.53;;;18.10;99.90;;;;;;5114166;28;20542;-68
2021/07/03 02:44:13;;;;;;;5.33;3.37;;;18.10;99.90;;;;;;5114576;28;20178;-66
2021/07/03 02:46:39;;;;;;;3.50;3.20;;;18.10;99.90;;;;;;5116354;28;20436;-68
2021/07/03 02:49:05;;;;;;;3.87;3.27;;;18.10;99.90;;;;;;5100111;28;20237;-68
2021/07/03 02:51:30;;;;;;;3.90;3.50;;;18.10;99.90;;;;;;5100112;28;20195;-68
2021/07/03 02:53:56;;;;;;;5.13;3.50;;;18.10;99.90;;;;;;5118133;28;20231;-68
2021/07/03 02:56:22;;;;;;;4.73;3.83;;;18.10;99.90;;;;;;5118377;28;20226;-68
2021/07/03 02:58:47;;;;;;;4.50;4.10;;;18.10;99.90;;;;;;5118265;28;20250;-68
2021/07/03 03:01:13;;;;;;;3.93;3.23;;;18.10;99.90;;;;;;5118416;28;20684;-67
2021/07/03 03:03:42;;;;;;;4.10;3.70;;;18.10;99.90;;;;;;5099771;28;20171;-66
2021/07/03 03:06:09;;;;;;;4.50;3.43;;;18.10;99.90;;;;;;5118286;28;20650;-67
2021/07/03 03:08:35;;;;;;;5.33;3.90;;;18.10;99.90;;;;;;5117780;28;20449;-66
2021/07/03 03:11:02;;;;;;;4.70;4.20;;;18.10;99.90;;;;;;5118231;28;20836;-66
2021/07/03 03:13:28;;;;;;;3.80;3.43;;;18.10;99.90;;;;;;5118011;28;20634;-68
2021/07/03 03:15:53;;;;;;;3.70;3.40;;;18.10;99.90;;;;;;5117617;28;20582;-68
2021/07/03 03:18:19;;;;;;;4.33;3.60;;;18.00;99.90;;;;;;5099570;28;20266;-68
2021/07/03 03:20:44;;;;;;;4.23;3.17;;;18.10;99.90;;;;;;5099548;28;20672;-66
2021/07/03 03:23:10;;;;;;;6.17;3.57;;;18.00;99.90;;;;;;5117782;28;20550;-66
2021/07/03 03:25:36;;;;;;;3.80;3.43;;;18.00;99.90;;;;;;5117816;28;20203;-68
2021/07/03 03:28:01;;;;;;;4.67;3.83;;;18.00;99.90;;;;;;5117670;28;20629;-67
2021/07/03 03:30:27;;;;;;;4.07;3.67;;;18.00;99.90;;;;;;5117707;28;20199;-67
2021/07/03 03:32:53;;;;;;;5.70;3.60;;;18.00;99.90;;;;;;5117562;28;20685;-67
2021/07/03 03:35:19;;;;;;;3.90;3.50;;;18.00;99.90;;;;;;5117494;28;20264;-66
2021/07/03 03:37:44;;;;;;;3.80;3.50;;;18.00;99.90;;;;;;5117514;28;20168;-68
2021/07/03 03:40:11;;;;;;;4.70;3.80;;;18.00;99.90;;;;;;5099220;28;20432;-66
2021/07/03 03:42:36;;;;;;;4.10;3.70;;;18.00;99.90;;;;;;5116897;28;20207;-67
2021/07/03 03:45:04;;;;;;;4.20;3.80;;;18.00;99.90;;;;;;5117251;28;20427;-68
2021/07/03 03:47:30;;;;;;;5.23;3.60;;;18.00;99.90;;;;;;5117277;28;20238;-66
2021/07/03 03:49:56;;;;;;;4.70;4.03;;;18.00;99.90;;;;;;5117093;28;20774;-68
2021/07/03 03:52:21;;;;;;;3.60;3.30;;;18.00;99.90;;;;;;5116776;28;20168;-68
2021/07/03 03:54:47;;;;;;;4.40;4.00;;;18.10;99.90;;;;;;5116839;28;20227;-66
2021/07/03 03:57:22;;;;;;;4.00;3.60;;;18.10;99.90;;;;;;5116559;28;20203;-66
2021/07/03 03:59:52;;;;;;;4.23;3.30;;;18.10;99.90;;;;;;5117114;28;20247;-68
2021/07/03 04:02:19;;;;;;;4.07;3.77;;;18.10;99.90;;;;;;5098777;28;20854;-66
2021/07/03 04:04:45;;;;;;;7.57;4.90;;;18.10;99.90;;;;;;5116772;28;20741;-68
2021/07/03 04:07:11;;;;;;;4.87;4.23;;;18.10;99.90;;;;;;5116852;28;20388;-66
2021/07/03 04:09:36;;;;;;;3.73;3.43;;;18.20;99.90;;;;;;5116785;28;20397;-66
2021/07/03 04:12:02;;;;;;;5.97;4.23;;;18.10;99.90;;;;;;5116782;28;21025;-66
2021/07/03 04:14:28;;;;;;;4.63;3.40;;;18.20;99.90;;;;;;5116769;28;20217;-67
2021/07/03 04:16:55;;;;;;;4.10;3.67;;;18.20;99.90;;;;;;5117068;28;20772;-66
2021/07/03 04:19:21;;;;;;;3.60;3.27;;;18.20;99.90;;;;;;5098501;28;20172;-68
2021/07/03 04:21:46;;;;;;;5.53;3.67;;;18.20;99.90;;;;;;5117012;28;20761;-67
2021/07/03 04:24:12;;;;;;;4.57;3.53;;;18.30;99.90;;;;;;5098310;28;20412;-66
2021/07/03 04:26:37;;;;;;;5.37;3.80;;;18.30;99.90;;;;;;5098189;28;20673;-68
2021/07/03 04:29:03;;;;;;;4.10;3.70;;;18.30;99.90;;;;;;5098292;28;20558;-66
2021/07/03 04:31:29;;;;;;;3.70;3.30;;;18.30;99.90;;;;;;5098222;28;20599;-66
2021/07/03 04:33:55;;;;;;;5.33;4.60;;;18.30;99.90;;;;;;5116378;28;20485;-69
2021/07/03 04:36:20;;;;;;;5.47;4.73;;;18.40;99.90;;;;;;5116608;28;20224;-68
2021/07/03 04:38:46;;;;;;;4.50;4.00;;;18.40;99.90;;;;;;5115995;28;20175;-67
2021/07/03 04:41:11;;;;;;;4.53;3.20;;;18.40;99.90;;;;;;5098057;28;20207;-68
2021/07/03 04:43:37;;;;;;;4.57;4.10;;;18.50;99.90;;;;;;5097968;28;20633;-68
2021/07/03 04:46:03;;;;;;;5.20;4.00;;;18.50;99.90;;;;;;5097816;28;20575;-65
2021/07/03 04:48:29;;;;;;;4.40;3.70;;;18.50;99.90;;;;;;5116167;28;20168;-65
2021/07/03 04:50:55;;;;;;;3.77;3.47;;;18.50;99.90;;;;;;5097697;28;20445;-68
2021/07/03 04:53:20;;;;;;;4.40;4.00;;;18.60;99.90;;;;;;5097429;28;20535;-66
2021/07/03 04:55:46;;;;;;;6.57;3.80;;;18.60;99.90;;;;;;5097565;28;20550;-68
2021/07/03 04:58:12;;;;;;;4.53;4.13;;;18.70;99.90;;;;;;5115955;28;20202;-67
2021/07/03 05:00:37;;;;;;;5.10;3.57;;;18.70;99.90;;;;;;5115591;28;20277;-67
2021/07/03 05:03:03;;;;;;;5.70;3.97;;;18.80;99.90;;;;;;5115815;28;20176;-67
2021/07/03 05:05:28;;;;;;;4.23;3.37;;;18.80;99.90;;;;;;5115864;28;20605;-67
2021/07/03 05:07:54;;;;;;;6.07;4.37;;;18.80;99.90;;;;;;5115718;28;20173;-65
2021/07/03 05:10:20;;;;;;;4.17;3.70;;;18.90;99.90;;;;;;5096608;28;20197;-67
2021/07/03 05:12:45;;;;;;;4.83;4.03;;;18.90;99.90;;;;;;5097220;28;20211;-69
2021/07/03 05:15:11;;;;;;;4.90;4.00;;;18.90;99.90;;;;;;5097077;28;20252;-66
2021/07/03 05:17:37;;;;;;;4.43;4.03;;;19.00;99.90;;;;;;5115561;28;20178;-66
2021/07/03 05:20:04;;;;;;;4.97;4.20;;;19.00;99.90;;;;;;5115348;28;20765;-66
2021/07/03 05:22:30;;;;;;;4.67;4.00;;;19.10;99.90;;;;;;5097010;28;20184;-68
2021/07/03 05:24:56;;;;;;;4.10;3.67;;;19.10;99.90;;;;;;5115234;28;20406;-65
2021/07/03 05:27:21;;;;;;;5.27;4.00;;;19.10;99.90;;;;;;5115640;28;20177;-67
2021/07/03 05:29:47;;;;;;;4.87;3.90;;;19.20;99.90;;;;;;5096921;28;20177;-66
2021/07/03 05:32:13;;;;;;;4.87;3.83;;;19.30;99.90;;;;;;5115305;28;20257;-68
2021/07/03 05:34:38;;;;;;;5.70;4.77;;;19.30;99.90;;;;;;5096758;28;20177;-66
2021/07/03 05:37:06;;;;;;;5.00;3.90;;;19.40;99.90;;;;;;5096827;28;20326;-67
2021/07/03 05:39:31;;;;;;;4.90;4.40;;;19.40;99.90;;;;;;5115106;28;20166;-68
2021/07/03 05:41:57;;;;;;;5.27;4.00;;;19.50;99.90;;;;;;5096858;28;20991;-68
2021/07/03 05:44:24;;;;;;;4.77;4.30;;;19.60;99.90;;;;;;5096867;28;20226;-67
2021/07/03 05:46:50;;;;;;;4.40;3.93;;;19.70;99.90;;;;;;5114788;28;20193;-68
2021/07/03 05:49:17;;;;;;;4.67;4.20;;;19.70;99.90;;;;;;5114903;28;20409;-68
2021/07/03 05:51:43;;;;;;;5.30;4.53;;;19.80;99.90;;;;;;5115220;28;20441;-68
2021/07/03 05:54:08;;;;;;;5.03;4.37;;;19.90;99.90;;;;;;5114639;28;20999;-68
2021/07/03 05:56:35;;;;;;;4.67;4.27;;;20.00;99.90;;;;;;5114900;28;20530;-69
2021/07/03 05:59:01;;;;;;;4.70;4.30;;;20.10;99.90;;;;;;5115091;27;20859;-68
2021/07/03 06:01:27;;;;;;;6.07;4.30;;;20.10;99.90;;;;;;5113219;28;20210;-66
2021/07/03 06:03:53;;;;;;;5.53;4.07;;;20.20;99.90;;;;;;5112682;28;20755;-68
2021/07/03 06:06:18;;;;;;;4.93;4.43;;;20.20;99.90;;;;;;5113730;28;20248;-66
2021/07/03 06:08:44;;;;;;;5.53;4.90;;;20.30;99.90;;;;;;5111393;28;20600;-68
2021/07/03 06:11:10;;;;;;;5.23;3.77;;;20.40;99.90;;;;;;5111122;28;20567;-68
2021/07/03 06:13:36;;;;;;;5.10;4.10;;;20.40;99.90;;;;;;5112602;28;20246;-67
2021/07/03 06:16:02;;;;;;;4.67;4.27;;;20.50;99.90;;;;;;5093981;28;20280;-68
2021/07/03 06:18:27;;;;;;;4.73;4.33;;;20.60;99.90;;;;;;5112471;28;20196;-68
2021/07/03 06:20:53;;;;;;;5.00;4.23;;;20.70;99.90;;;;;;5111672;28;20447;-66
2021/07/03 06:23:19;;;;;;;4.33;3.93;;;20.70;99.90;;;;;;5114606;28;20178;-66
2021/07/03 06:25:45;;;;;;;5.07;4.60;;;20.80;99.90;;;;;;5095853;28;20253;-66
2021/07/03 06:28:10;;;;;;;5.50;4.00;;;20.90;99.90;;;;;;5113033;28;20307;-68
2021/07/03 06:30:36;;;;;;;5.10;4.60;;;21.00;99.90;;;;;;5095324;28;20207;-68
2021/07/03 06:33:02;;;;;;;6.37;3.83;;;21.10;99.90;;;;;;5113015;28;20172;-68
2021/07/03 06:35:27;;;;;;;5.00;4.50;;;21.10;99.90;;;;;;5095895;28;20227;-66
2021/07/03 06:37:53;;;;;;;5.00;4.50;;;21.20;99.90;;;;;;5095955;28;20712;-67
2021/07/03 06:40:19;;;;;;;5.03;4.53;;;21.20;99.90;;;;;;5114241;28;20195;-66
2021/07/03 06:42:44;;;;;;;6.00;4.70;;;21.30;99.90;;;;;;5114221;28;20194;-67
2021/07/03 06:45:10;;;;;;;4.93;4.40;;;21.30;99.90;;;;;;5113989;28;20278;-68
2021/07/03 06:47:36;;;;;;;5.27;4.77;;;21.40;99.90;;;;;;5112831;28;20179;-68
2021/07/03 06:50:02;;;;;;;6.43;4.77;;;21.40;99.90;;;;;;5114087;28;20176;-68
2021/07/03 06:52:28;;;;;;;5.30;4.80;;;21.50;99.90;;;;;;5095757;28;20546;-68
2021/07/03 06:54:53;;;;;;;5.47;4.93;;;21.60;99.90;;;;;;5112787;28;20484;-67
2021/07/03 06:57:19;;;;;;;4.60;3.83;;;21.60;99.90;;;;;;5112751;28;20176;-68
2021/07/03 06:59:44;;;;;;;5.57;5.00;;;21.80;99.90;;;;;;5113607;28;20222;-66
2021/07/03 07:02:10;;;;;;;4.77;4.10;;;21.80;99.90;;;;;;5113931;28;20202;-68
2021/07/03 07:04:36;;;;;;;7.17;4.43;;;21.90;99.90;;;;;;5113953;28;20568;-68
2021/07/03 07:07:02;;;;;;;5.93;5.10;;;22.00;99.90;;;;;;5114266;28;20192;-68
2021/07/03 07:09:27;;;;;;;5.27;4.77;;;22.00;99.90;;;;;;5095683;28;20246;-68
2021/07/03 07:11:57;;;;;;;5.50;5.00;;;22.10;99.90;;;;;;5114196;28;20199;-68
2021/07/03 07:14:23;;;;;;;5.73;5.03;;;22.20;99.90;;;;;;5113691;28;20168;-68
2021/07/03 07:16:48;;;;;;;6.20;5.60;;;22.30;99.90;;;;;;5114106;28;20568;-66
2021/07/03 07:19:14;;;;;;;5.40;4.90;;;22.30;99.90;;;;;;5114010;28;20824;-67
2021/07/03 07:21:40;;;;;;;6.23;5.43;;;22.40;99.90;;;;;;5114158;28;20568;-66
2021/07/03 07:24:06;;;;;;;4.70;4.23;;;22.50;99.90;;;;;;5095467;28;20544;-68
2021/07/03 07:26:32;;;;;;;5.40;4.90;;;22.50;99.90;;;;;;5114057;28;20535;-68
2021/07/03 07:28:58;;;;;;;4.87;4.47;;;22.60;99.90;;;;;;5113645;28;20258;-69
2021/07/03 07:31:23;;;;;;;5.33;4.83;;;22.70;99.90;;;;;;5113935;27;20870;-66
2021/07/03 07:33:49;;;;;;;5.07;4.60;;;22.70;99.90;;;;;;5098831;28;20178;-68
2021/07/03 07:36:15;;;;;;;4.83;4.20;;;22.80;99.90;;;;;;5116564;28;20230;-66
2021/07/03 07:38:41;;;;;;;5.20;4.30;;;22.90;99.90;;;;;;5114650;28;20701;-68
2021/07/03 07:41:07;;;;;;;6.07;4.90;;;23.00;99.90;;;;;;5097504;28;20198;-66
2021/07/03 07:43:33;;;;;;;4.70;4.30;;;23.10;99.90;;;;;;5117353;28;20488;-67
2021/07/03 07:46:00;;;;;;;4.50;4.10;;;23.20;99.90;;;;;;5117095;28;20197;-68
2021/07/03 07:48:31;;;;;;;5.00;4.60;;;23.30;99.90;;;;;;5098984;28;20416;-68
2021/07/03 07:51:00;;;;;;;4.70;4.33;;;23.30;99.90;;;;;;5117433;28;20826;-68
2021/07/03 07:53:25;;;;;;;4.93;4.43;;;23.40;99.90;;;;;;5116949;28;20400;-69
2021/07/03 07:55:51;;;;;;;4.80;4.40;;;23.50;99.90;;;;;;5098794;28;20643;-68
2021/07/03 07:58:17;;;;;;;5.00;4.60;;;23.50;99.90;;;;;;5117218;28;20173;-68
2021/07/03 08:00:43;;;;;;;4.90;4.47;;;23.60;99.90;;;;;;5115839;28;20201;-68
2021/07/03 08:03:08;;;;;;;5.00;4.13;;;23.70;99.90;;;;;;5115743;28;20180;-66
2021/07/03 08:05:35;;;;;;;5.53;5.00;;;23.70;99.90;;;;;;5116986;28;20833;-66
2021/07/03 08:08:03;;;;;;;5.30;4.80;;;23.80;99.90;;;;;;5116859;28;20170;-68
2021/07/03 08:10:30;;;;;;;4.97;4.53;;;23.90;99.90;;;;;;5098377;28;20515;-67
2021/07/03 08:12:56;;;;;;;4.80;4.40;;;23.90;99.90;;;;;;5116786;28;20404;-66
2021/07/03 08:15:22;;;;;;;5.57;4.70;;;24.00;99.90;;;;;;5116713;28;20474;-66
2021/07/03 08:17:47;;;;;;;5.27;4.77;;;24.00;99.90;;;;;;5116724;28;20169;-66
2021/07/03 08:20:19;;;;;;;4.37;3.97;;;24.10;99.90;;;;;;5116514;28;20220;-66
2021/07/03 08:22:50;;;;;;;4.80;4.40;;;24.20;99.90;;;;;;5116641;28;20176;-66
2021/07/03 08:25:17;;;;;;;5.77;4.60;;;24.30;99.90;;;;;;5116681;28;20442;-67
2021/07/03 08:27:43;;;;;;;5.03;4.63;;;24.30;99.90;;;;;;5098277;28;20415;-66
2021/07/03 08:30:10;;;;;;;5.30;4.90;;;24.40;99.90;;;;;;5116342;28;20458;-67
2021/07/03 08:32:36;;;;;;;3.90;3.60;;;24.40;99.90;;;;;;5116244;28;20409;-68
2021/07/03 08:35:01;;;;;;;5.37;4.33;;;24.50;99.90;;;;;;5097885;28;20988;-66
2021/07/03 08:37:27;;;;;;;7.93;5.47;;;24.60;99.90;;;;;;5116339;28;20684;-68
2021/07/03 08:39:53;;;;;;;5.00;4.60;;;24.70;99.90;;;;;;5116246;28;20473;-66
2021/07/03 08:42:18;;;;;;;5.13;4.60;;;24.80;99.90;;;;;;5116345;28;20594;-66
2021/07/03 08:44:46;;;;;;;5.50;4.70;;;24.90;99.90;;;;;;5114795;28;20170;-68
2021/07/03 08:47:12;;;;;;;5.33;4.93;;;24.90;99.90;;;;;;5097883;28;20187;-68
2021/07/03 08:49:38;;;;;;;4.63;4.27;;;25.00;99.90;;;;;;5116008;28;20763;-68
2021/07/03 08:52:04;;;;;;;4.67;4.27;;;25.00;99.90;;;;;;5115938;28;20419;-67
2021/07/03 08:54:29;;;;;;;4.93;4.53;;;25.10;99.90;;;;;;5115722;28;20317;-66
2021/07/03 08:57:00;;;;;;;4.37;4.00;;;25.20;99.90;;;;;;5116355;28;20238;-66
2021/07/03 08:59:26;;;;;;;4.97;4.47;;;25.30;99.90;;;;;;5115968;28;20172;-69
2021/07/03 09:01:58;;;;;;;5.60;4.23;;;25.30;99.90;;;;;;5097610;28;20458;-66
2021/07/03 09:04:33;;;;;;;4.87;4.47;;;25.40;99.90;;;;;;5097602;28;20403;-67
2021/07/03 09:07:10;;;;;;;4.60;4.13;;;25.50;99.90;;;;;;5116184;28;20458;-68
2021/07/03 09:09:36;;;;;;;4.70;4.33;;;25.60;99.90;;;;;;5115810;28;20834;-66
2021/07/03 09:12:01;;;;;;;4.73;4.33;;;25.60;99.90;;;;;;5116033;28;20443;-69
2021/07/03 09:14:28;;;;;;;4.20;3.90;;;25.70;99.90;;;;;;5115792;28;20641;-66
2021/07/03 09:16:57;;;;;;;5.40;5.00;;;25.80;99.90;;;;;;5115276;28;20268;-68
2021/07/03 09:19:27;;;;;;;5.57;5.10;;;25.90;99.90;;;;;;5097270;28;20443;-68
2021/07/03 09:21:53;;;;;;;5.57;4.93;;;25.90;99.90;;;;;;5115955;28;20447;-68
2021/07/03 09:24:19;;;;;;;5.17;4.57;;;26.00;99.90;;;;;;5115504;28;20392;-68
2021/07/03 09:26:56;;;;;;;4.83;4.40;;;26.00;99.90;;;;;;5114157;28;20802;-69
2021/07/03 09:29:21;;;;;;;5.93;4.17;;;26.10;99.90;;;;;;5097073;28;20175;-69
2021/07/03 09:31:47;;;;;;;5.00;4.53;;;26.20;99.90;;;;;;5096887;28;20500;-66
2021/07/03 09:34:15;;;;;;;5.13;4.73;;;26.20;99.90;;;;;;5115251;28;20172;-67
2021/07/03 09:36:41;;;;;;;5.17;4.77;;;26.30;99.90;;;;;;5115606;28;20620;-68
2021/07/03 09:39:07;;;;;;;5.33;4.83;;;26.30;99.90;;;;;;5115153;28;20426;-67
2021/07/03 09:41:35;;;;;;;5.47;5.07;;;26.30;99.90;;;;;;5115367;28;20252;-66
2021/07/03 09:44:11;;;;;;;8.00;5.90;;;26.30;99.90;;;;;;5115020;28;20290;-66
2021/07/03 09:46:40;;;;;;;5.37;4.87;;;26.30;99.90;;;;;;5115365;28;20435;-68
2021/07/03 09:49:11;;;;;;;4.70;4.20;;;26.30;99.90;;;;;;5096684;28;20821;-69
2021/07/03 09:51:38;;;;;;;4.97;4.57;;;26.40;99.90;;;;;;5115287;28;20467;-67
2021/07/03 09:54:09;;;;;;;5.43;5.03;;;26.40;99.90;;;;;;5114608;28;20964;-66
2021/07/03 09:56:35;;;;;;;9.10;7.93;;;26.40;99.90;;;;;;5114270;28;20586;-66
2021/07/03 09:59:00;;;;;;;4.60;4.20;;;26.40;99.90;;;;;;5114715;28;20452;-66
2021/07/03 10:01:26;;;;;;;5.77;4.30;;;26.40;99.90;;;;;;5115095;28;20435;-69
2021/07/03 10:03:52;;;;;;;7.93;6.60;;;26.50;99.90;;;;;;5113427;28;20259;-66
2021/07/03 10:06:30;;;;;;;6.40;5.07;;;26.40;99.90;;;;;;5096199;28;20741;-69
2021/07/03 10:09:02;;;;;;;4.43;4.03;;;26.50;99.90;;;;;;5114583;28;20408;-69
2021/07/03 10:11:30;;;;;;;5.53;4.40;;;26.40;99.90;;;;;;5096312;28;20458;-68
2021/07/03 10:14:02;;;;;;;4.50;4.10;;;26.40;99.90;;;;;;5113191;28;20408;-66
2021/07/03 10:16:28;;;;;;;6.10;4.80;;;26.40;99.90;;;;;;5125681;27;20506;-67
2021/07/03 10:19:06;;;;;;;5.07;4.67;;;26.40;99.90;;;;;;5134384;27;20486;-68
2021/07/03 10:21:32;;;;;;;5.70;5.20;;;26.50;99.90;;;;;;5134044;27;20437;-66
2021/07/03 10:23:58;;;;;;;5.93;5.20;;;26.50;99.90;;;;;;5114319;27;20834;-67
2021/07/03 10:26:34;;;;;;;4.90;4.40;;;26.50;99.90;;;;;;5114349;27;20203;-67
2021/07/03 10:29:00;;;;;;;5.17;4.63;;;26.60;99.90;;;;;;5132750;27;20159;-69
2021/07/03 10:31:32;;;;;;;5.20;4.43;;;26.60;99.90;;;;;;5114293;28;20449;-70
2021/07/03 10:33:58;;;;;;;5.57;4.60;;;26.70;99.90;;;;;;5132593;27;20689;-69
2021/07/03 10:36:31;;;;;;;6.20;5.60;;;26.70;99.90;;;;;;5113925;27;20479;-66
2021/07/03 10:39:00;;;;;;;5.70;5.10;;;26.70;99.90;;;;;;5132435;27;20232;-69
2021/07/03 10:41:31;;;;;;;5.80;5.30;;;26.80;99.90;;;;;;5132089;27;20480;-66
2021/07/03 10:44:06;;;;;;;4.90;4.40;;;26.70;99.90;;;;;;5132530;27;20422;-69
2021/07/03 10:46:43;;;;;;;4.57;4.17;;;26.70;99.90;;;;;;5113933;28;20834;-66
2021/07/03 10:49:12;;;;;;;6.03;5.53;;;26.80;99.90;;;;;;5132530;28;20775;-67
2021/07/03 10:51:46;;;;;;;5.30;4.90;;;26.80;99.90;;;;;;5133556;28;20797;-66
2021/07/03 10:54:13;;;;;;;4.80;4.40;;;26.80;99.90;;;;;;5134353;28;20463;-67
2021/07/03 10:56:40;;;;;;;5.40;4.90;;;26.90;99.90;;;;;;5116061;28;20474;-66
2021/07/03 10:59:11;;;;;;;3.97;3.60;;;26.90;99.90;;;;;;5115983;28;20403;-69
2021/07/03 11:01:37;;;;;;;4.77;4.20;;;26.90;99.90;;;;;;5115865;28;20872;-66
2021/07/03 11:04:18;;;;;;;4.40;4.00;;;26.90;99.90;;;;;;5134489;28;20428;-68
2021/07/03 11:06:53;;;;;;;4.10;3.80;;;27.00;99.90;;;;;;5135109;27;20195;-66
2021/07/03 11:09:30;;;;;;;4.47;4.07;;;27.00;99.90;;;;;;5138585;27;20387;-69
2021/07/03 11:12:09;;;;;;;4.50;4.10;;;27.00;99.90;;;;;;5139030;27;20511;-69
2021/07/03 11:14:38;;;;;;;5.57;4.20;;;27.10;99.90;;;;;;5138640;27;20390;-69
2021/07/03 11:17:04;;;;;;;4.70;4.27;;;27.10;99.90;;;;;;5138349;27;20431;-69
2021/07/03 11:19:30;;;;;;;4.20;3.90;;;27.20;99.90;;;;;;5138406;27;20405;-68
2021/07/03 11:22:07;;;;;;;4.30;3.90;;;27.20;99.90;;;;;;5119928;27;20210;-67
2021/07/03 11:24:59;;;;;;;4.83;3.60;;;27.30;99.90;;;;;;5119861;27;20183;-69
2021/07/03 11:27:25;;;;;;;3.83;3.50;;;27.30;99.90;;;;;;5115424;27;20447;-69
2021/07/03 11:29:51;;;;;;;4.30;3.90;;;27.40;99.90;;;;;;5138068;27;20427;-69
2021/07/03 11:32:16;;;;;;;4.43;4.07;;;27.40;99.90;;;;;;5138264;27;20171;-69
2021/07/03 11:34:54;;;;;;;4.33;3.93;;;27.50;99.90;;;;;;5119483;27;20583;-69
2021/07/03 11:37:34;;;;;;;4.50;4.07;;;27.50;99.90;;;;;;5119705;27;20171;-69
2021/07/03 11:40:09;;;;;;;4.27;3.80;;;27.60;99.90;;;;;;5137983;27;20908;-68
2021/07/03 11:42:45;;;;;;;3.70;3.40;;;27.60;99.90;;;;;;5119535;27;20924;-66
2021/07/03 11:45:14;;;;;;;4.53;4.13;;;27.60;99.40;;;;;;5137926;27;20437;-68
2021/07/03 11:47:51;;;;;;;5.30;4.80;;;27.60;99.60;;;;;;5119498;27;20443;-66
2021/07/03 11:50:22;;;;;;;5.10;4.63;;;27.60;98.70;;;;;;5137946;27;20439;-66
2021/07/03 11:52:48;;;;;;;4.50;4.10;;;27.50;99.20;;;;;;5137836;27;20407;-66
2021/07/03 11:55:18;;;;;;;4.90;4.50;;;27.50;99.30;;;;;;5137612;27;20483;-67
2021/07/03 11:57:45;;;;;;;4.70;4.30;;;27.50;99.60;;;;;;5137659;27;20403;-69
2021/07/03 12:00:20;;;;;;;5.10;4.70;;;27.50;99.70;;;;;;5137406;27;20584;-68
2021/07/03 12:02:47;;;;;;;5.20;4.60;;;27.50;99.40;;;;;;5119151;27;20414;-69
2021/07/03 12:05:17;;;;;;;4.60;4.27;;;27.40;99.30;;;;;;5119216;27;20434;-68
2021/07/03 12:07:43;;;;;;;5.17;4.70;;;27.40;98.70;;;;;;5137751;27;20388;-66
2021/07/03 12:10:10;;;;;;;4.87;4.33;;;27.40;98.40;;;;;;5118874;27;20986;-68
2021/07/03 12:12:37;;;;;;;6.30;5.03;;;27.40;98.30;;;;;;5137487;27;20171;-68
2021/07/03 12:15:11;;;;;;;5.10;4.60;;;27.40;98.30;;;;;;5118688;27;20655;-67
2021/07/03 12:17:47;;;;;;;4.93;4.50;;;27.40;98.60;;;;;;5118503;27;20836;-69
2021/07/03 12:20:13;;;;;;;8.33;5.37;;;27.40;98.80;;;;;;5137379;27;20461;-67
2021/07/03 12:22:39;;;;;;;5.90;5.40;;;27.60;98.90;;;;;;5137071;27;20501;-69
2021/07/03 12:25:25;;;;;;;4.93;4.43;;;27.60;98.70;;;;;;5137006;27;20462;-66
2021/07/03 12:27:54;;;;;;;4.77;4.37;;;27.70;98.70;;;;;;5118442;27;20443;-67
2021/07/03 12:30:20;;;;;;;4.43;4.13;;;27.70;98.10;;;;;;5118411;27;20983;-68
2021/07/03 12:32:46;;;;;;;4.80;4.40;;;27.80;97.40;;;;;;5137050;27;20403;-68
2021/07/03 12:35:13;;;;;;;5.47;4.60;;;27.80;97.40;;;;;;5136821;27;20457;-69
2021/07/03 12:37:39;;;;;;;5.00;4.60;;;27.90;97.50;;;;;;5137016;27;20218;-67
2021/07/03 12:40:16;;;;;;;5.10;4.70;;;27.90;97.30;;;;;;5136830;27;20486;-68
2021/07/03 12:42:43;;;;;;;4.20;3.80;;;28.00;97.40;;;;;;5136918;27;20391;-67
2021/07/03 12:45:11;;;;;;;5.23;4.73;;;27.90;97.00;;;;;;5118410;27;20951;-66
2021/07/03 12:47:38;;;;;;;5.10;4.70;;;28.00;97.60;;;;;;5136689;27;20410;-70
2021/07/03 12:50:06;;;;;;;5.27;4.77;;;28.00;97.10;;;;;;5136600;27;20439;-67
2021/07/03 12:52:42;;;;;;;4.87;4.47;;;28.00;96.60;;;;;;5136736;27;20399;-66